Time;durP1;ratioP1;P1;durP2;ratioP2;P2;SDS_P1;SDS_P2;PMS_P1;PMS_P2;Temp;Humidity;BMP_temperature;BMP_pressure;BME280_temperature;BME280_humidity;BME280_pressure;Samples;Min_cycle;Max_cycle;Signal;HPM_P1;HPM_P2
2022/06/19 00:01:35;;;;;;;3.57;2.60;;;25.80;25.80;;;;;;10547532;28;20715;-75
2022/06/19 00:06:38;;;;;;;3.00;2.50;;;25.80;26.00;;;;;;10549478;28;20248;-75
2022/06/19 00:11:42;;;;;;;2.83;2.37;;;25.70;25.60;;;;;;10549398;28;20230;-75
2022/06/19 00:16:46;;;;;;;2.60;2.00;;;25.60;25.80;;;;;;10550161;28;20227;-75
2022/06/19 00:21:49;;;;;;;4.43;2.03;;;25.50;25.90;;;;;;10548214;28;20605;-75
2022/06/19 00:26:53;;;;;;;2.97;2.40;;;25.50;25.70;;;;;;10549067;28;20238;-75
2022/06/19 00:31:57;;;;;;;3.33;2.10;;;25.40;25.50;;;;;;10551183;28;20223;-74
2022/06/19 00:37:02;;;;;;;2.53;2.23;;;25.40;25.90;;;;;;10555371;27;20238;-75
2022/06/19 00:42:08;;;;;;;2.57;2.23;;;25.40;25.60;;;;;;10555614;28;20222;-74
2022/06/19 00:47:18;;;;;;;3.23;2.20;;;25.40;25.80;;;;;;10554955;28;20593;-74
2022/06/19 00:52:24;;;;;;;3.93;2.20;;;25.40;26.40;;;;;;10555704;27;20231;-75
2022/06/19 00:57:31;;;;;;;3.00;2.07;;;25.40;25.80;;;;;;10550670;27;21250;-75
2022/06/19 01:02:38;;;;;;;2.63;2.10;;;25.40;26.00;;;;;;10554097;27;20226;-75
2022/06/19 01:07:43;;;;;;;6.03;2.47;;;25.40;25.90;;;;;;10553483;27;20219;-75
2022/06/19 01:12:47;;;;;;;2.40;2.17;;;25.30;25.90;;;;;;10554959;28;20254;-75
2022/06/19 01:17:57;;;;;;;4.23;2.43;;;25.30;25.90;;;;;;10553695;28;20714;-75
2022/06/19 01:23:08;;;;;;;3.63;2.60;;;25.20;26.30;;;;;;10554673;27;20238;-75
2022/06/19 01:33:44;;;;;;;2.70;2.50;;;25.20;26.40;;;;;;10549019;27;20326;-75
2022/06/19 01:38:50;;;;;;;4.67;2.50;;;25.20;26.40;;;;;;10546663;28;20238;-75
2022/06/19 01:43:55;;;;;;;2.83;2.50;;;25.20;26.30;;;;;;10545797;28;20228;-76
2022/06/19 01:48:59;;;;;;;2.60;2.40;;;25.10;26.30;;;;;;10548171;27;20289;-75
2022/06/19 01:54:06;;;;;;;2.80;2.30;;;25.10;26.10;;;;;;10552271;28;20239;-75
2022/06/19 01:59:11;;;;;;;4.10;2.53;;;25.20;26.40;;;;;;10553250;27;20305;-74
2022/06/19 02:04:15;;;;;;;2.90;2.30;;;25.10;26.30;;;;;;10544612;28;20920;-75
2022/06/19 02:09:22;;;;;;;3.17;2.70;;;25.10;26.10;;;;;;10548709;27;20255;-75
2022/06/19 02:14:27;;;;;;;2.77;2.30;;;25.10;26.40;;;;;;10552847;27;20227;-75
2022/06/19 02:19:30;;;;;;;3.80;2.30;;;25.10;26.40;;;;;;10547057;27;20234;-75
2022/06/19 02:24:33;;;;;;;3.37;2.50;;;25.10;26.20;;;;;;10550936;28;20219;-75
2022/06/19 02:29:40;;;;;;;3.20;2.60;;;25.10;26.40;;;;;;10547184;28;20251;-74
2022/06/19 02:34:44;;;;;;;2.37;2.17;;;25.00;26.70;;;;;;10550275;27;20235;-75
2022/06/19 02:39:54;;;;;;;2.80;2.60;;;25.00;26.40;;;;;;10549792;28;20222;-75
2022/06/19 02:45:04;;;;;;;2.97;2.70;;;25.00;26.70;;;;;;10549441;28;20226;-75
2022/06/19 02:50:11;;;;;;;3.13;2.80;;;24.90;26.90;;;;;;10546834;28;20307;-75
2022/06/19 02:55:15;;;;;;;2.83;2.60;;;24.70;26.70;;;;;;10546965;27;20231;-75
2022/06/19 03:00:25;;;;;;;3.20;2.27;;;24.60;26.60;;;;;;10547997;28;20227;-75
2022/06/19 03:05:30;;;;;;;3.73;2.50;;;24.40;27.10;;;;;;10553475;28;20262;-74
2022/06/19 03:10:33;;;;;;;4.10;2.60;;;24.30;26.90;;;;;;10545556;28;20242;-75
2022/06/19 03:15:38;;;;;;;3.23;2.50;;;24.20;26.80;;;;;;10549084;28;20230;-75
2022/06/19 03:20:41;;;;;;;3.67;2.50;;;24.10;27.10;;;;;;10545979;28;20237;-75
2022/06/19 03:25:47;;;;;;;5.93;2.57;;;24.00;27.00;;;;;;10549800;28;20310;-75
2022/06/19 03:30:53;;;;;;;3.43;2.30;;;24.00;27.30;;;;;;10549587;28;20223;-75
2022/06/19 03:35:57;;;;;;;4.87;2.43;;;24.00;28.00;;;;;;10550698;28;20223;-75
2022/06/19 03:41:00;;;;;;;3.10;2.80;;;24.00;27.60;;;;;;10547072;28;20223;-75
2022/06/19 03:46:12;;;;;;;3.83;2.50;;;24.00;27.40;;;;;;10550218;28;20597;-75
2022/06/19 03:51:16;;;;;;;3.80;2.80;;;24.00;28.00;;;;;;10547580;28;20227;-75
2022/06/19 03:56:23;;;;;;;3.23;2.50;;;23.90;27.90;;;;;;10543510;28;20338;-75
2022/06/19 04:01:31;;;;;;;2.40;2.20;;;24.00;28.00;;;;;;10548261;28;20227;-74
2022/06/19 04:06:37;;;;;;;4.70;2.70;;;24.00;28.10;;;;;;10558075;28;20222;-75
2022/06/19 04:11:40;;;;;;;2.70;2.50;;;23.90;27.90;;;;;;10557019;28;20222;-75
2022/06/19 04:16:45;;;;;;;4.43;2.60;;;23.90;28.00;;;;;;10556860;27;20227;-75
2022/06/19 04:21:49;;;;;;;4.23;2.50;;;23.90;28.40;;;;;;10562262;27;20231;-75
2022/06/19 04:26:52;;;;;;;3.57;2.63;;;23.90;27.90;;;;;;10554266;27;20334;-75
2022/06/19 04:31:57;;;;;;;3.37;2.90;;;23.80;28.10;;;;;;10556860;27;20233;-75
2022/06/19 04:37:00;;;;;;;4.23;2.87;;;23.80;28.60;;;;;;10553789;28;20273;-75
2022/06/19 04:42:05;;;;;;;3.13;2.70;;;23.80;28.40;;;;;;10542482;28;20228;-75
2022/06/19 04:47:10;;;;;;;5.60;2.70;;;23.80;28.50;;;;;;10550109;28;20232;-75
2022/06/19 04:52:13;;;;;;;4.20;2.47;;;23.80;29.10;;;;;;10554849;28;20219;-75
2022/06/19 04:57:16;;;;;;;5.47;3.00;;;23.80;28.80;;;;;;10554700;28;20224;-75
2022/06/19 05:02:22;;;;;;;3.87;2.63;;;23.80;28.90;;;;;;10554900;27;20245;-75
2022/06/19 05:07:25;;;;;;;4.73;3.00;;;23.90;29.30;;;;;;10551544;28;20233;-75
2022/06/19 05:12:28;;;;;;;4.27;2.77;;;24.00;29.10;;;;;;10558618;27;20231;-75
2022/06/19 05:17:34;;;;;;;3.80;3.00;;;24.10;29.20;;;;;;10550132;28;20232;-75
2022/06/19 05:22:37;;;;;;;3.40;3.00;;;24.20;29.70;;;;;;10553019;27;20286;-75
2022/06/19 05:27:41;;;;;;;4.83;2.83;;;24.30;29.10;;;;;;10554549;28;20237;-75
2022/06/19 05:32:46;;;;;;;3.43;2.90;;;24.50;29.20;;;;;;10552956;28;20839;-75
2022/06/19 05:37:50;;;;;;;3.47;3.17;;;24.50;29.40;;;;;;10552689;27;20227;-75
2022/06/19 05:42:53;;;;;;;3.83;2.73;;;24.70;29.40;;;;;;10556374;27;20704;-74
2022/06/19 05:47:57;;;;;;;2.73;2.53;;;24.80;29.60;;;;;;10552796;27;20319;-74
2022/06/19 05:53:07;;;;;;;5.23;2.90;;;24.90;29.60;;;;;;10554481;27;20253;-75
2022/06/19 05:58:10;;;;;;;4.17;2.87;;;25.00;29.40;;;;;;10551894;28;20374;-75
2022/06/19 06:03:17;;;;;;;4.10;3.13;;;25.20;29.60;;;;;;10555885;28;20588;-75
2022/06/19 06:08:20;;;;;;;3.97;2.87;;;25.40;29.80;;;;;;10551144;27;20523;-75
2022/06/19 06:13:24;;;;;;;5.73;2.90;;;25.50;29.30;;;;;;10554769;27;20230;-75
2022/06/19 06:18:29;;;;;;;6.23;3.20;;;25.60;29.20;;;;;;10554506;28;20703;-75
2022/06/19 06:23:32;;;;;;;6.13;2.83;;;25.80;29.10;;;;;;10548603;28;20223;-75
2022/06/19 06:28:37;;;;;;;3.27;2.80;;;26.00;29.20;;;;;;10547556;28;20226;-75
2022/06/19 06:33:42;;;;;;;5.40;2.50;;;26.20;29.30;;;;;;10553887;28;20232;-75
2022/06/19 06:38:46;;;;;;;3.50;2.43;;;26.40;29.30;;;;;;10550916;28;20239;-75
2022/06/19 06:43:49;;;;;;;7.63;2.77;;;26.50;29.10;;;;;;10553540;28;20227;-75
2022/06/19 06:48:57;;;;;;;3.97;2.73;;;26.70;28.90;;;;;;10550510;28;20307;-75
2022/06/19 06:54:01;;;;;;;6.63;3.20;;;26.90;28.90;;;;;;10550714;27;20222;-75
2022/06/19 06:59:04;;;;;;;5.90;3.00;;;27.10;28.60;;;;;;10515817;28;20829;-75
2022/06/19 07:04:10;;;;;;;3.73;3.13;;;27.20;28.30;;;;;;10500776;28;20212;-75
2022/06/19 07:09:13;;;;;;;6.23;2.97;;;27.40;28.30;;;;;;10509798;28;20230;-75
2022/06/19 07:14:18;;;;;;;5.97;2.93;;;27.50;28.40;;;;;;10503728;28;20239;-75
2022/06/19 07:19:23;;;;;;;5.57;3.30;;;27.70;28.30;;;;;;10506383;28;21790;-75
2022/06/19 07:24:27;;;;;;;4.93;3.07;;;28.00;28.20;;;;;;10515792;28;20223;-75
2022/06/19 07:29:33;;;;;;;4.57;2.80;;;28.10;28.20;;;;;;10525056;28;20626;-75
2022/06/19 07:34:38;;;;;;;5.67;2.87;;;28.30;28.10;;;;;;10516144;28;20230;-76
2022/06/19 07:39:42;;;;;;;4.90;2.93;;;28.50;28.00;;;;;;10504724;28;20233;-75
2022/06/19 07:44:45;;;;;;;5.73;3.33;;;28.80;28.30;;;;;;10513311;28;20237;-75
2022/06/19 07:55:12;;;;;;;9.70;3.50;;;29.20;27.00;;;;;;10520020;28;20930;-76
2022/06/19 08:00:20;;;;;;;6.60;3.47;;;29.40;26.60;;;;;;10510967;28;20302;-75
2022/06/19 08:05:27;;;;;;;4.40;3.00;;;29.60;26.30;;;;;;10529230;28;20289;-75
2022/06/19 08:10:33;;;;;;;6.20;3.50;;;29.80;26.10;;;;;;10546419;27;20695;-75
2022/06/19 08:15:36;;;;;;;8.67;3.67;;;29.90;26.40;;;;;;10550431;28;20736;-76
2022/06/19 08:20:41;;;;;;;7.07;3.33;;;30.10;26.20;;;;;;10550204;28;20219;-75
2022/06/19 08:25:45;;;;;;;7.87;3.70;;;30.30;25.80;;;;;;10551218;28;20804;-75
2022/06/19 08:30:48;;;;;;;5.70;3.10;;;30.50;26.20;;;;;;10501551;28;20224;-75
2022/06/19 08:35:55;;;;;;;7.77;3.80;;;30.70;25.70;;;;;;10522660;28;20238;-75
2022/06/19 08:41:33;;;;;;;8.60;3.30;;;30.90;24.90;;;;;;10508545;28;20311;-76
2022/06/19 08:46:47;;;;;;;6.23;3.20;;;31.10;25.60;;;;;;10536621;28;20219;-76
2022/06/19 08:52:03;;;;;;;8.23;3.63;;;31.30;24.50;;;;;;10554993;28;20598;-76
2022/06/19 08:57:20;;;;;;;7.47;3.97;;;31.60;23.70;;;;;;10515250;28;20220;-75
2022/06/19 09:02:35;;;;;;;9.17;3.60;;;31.70;24.00;;;;;;10517085;28;20233;-75
2022/06/19 09:07:50;;;;;;;6.27;3.60;;;32.00;23.80;;;;;;10545310;27;20219;-75
2022/06/19 09:13:12;;;;;;;8.53;3.97;;;32.10;24.00;;;;;;10546339;27;20257;-74
2022/06/19 09:18:26;;;;;;;11.10;4.07;;;32.30;23.90;;;;;;10543561;27;20236;-75
2022/06/19 09:23:54;;;;;;;7.23;3.60;;;32.60;23.80;;;;;;10541794;28;20315;-74
2022/06/19 09:29:02;;;;;;;12.47;3.87;;;32.80;23.60;;;;;;10545721;28;20234;-75
2022/06/19 09:34:11;;;;;;;7.27;4.03;;;33.00;22.70;;;;;;10542544;28;20231;-75
2022/06/19 09:39:21;;;;;;;7.87;4.03;;;33.10;22.30;;;;;;10541929;27;20232;-75
2022/06/19 09:44:33;;;;;;;6.23;4.07;;;33.30;21.70;;;;;;10537552;28;20259;-75
2022/06/19 09:49:43;;;;;;;5.47;3.90;;;33.40;22.10;;;;;;10536226;28;20851;-75
2022/06/19 09:54:50;;;;;;;5.30;4.03;;;33.50;22.10;;;;;;10537850;28;20612;-74
2022/06/19 09:59:59;;;;;;;6.53;4.10;;;33.70;21.00;;;;;;10541852;28;20233;-74
2022/06/19 10:05:10;;;;;;;9.47;4.07;;;33.90;21.40;;;;;;10542971;28;20225;-74
2022/06/19 10:10:20;;;;;;;7.53;4.17;;;34.10;20.90;;;;;;10524605;27;20906;-74
2022/06/19 10:15:30;;;;;;;10.43;4.50;;;34.30;21.20;;;;;;10542952;27;20890;-74
2022/06/19 10:20:46;;;;;;;7.23;4.10;;;34.60;21.20;;;;;;10538395;27;20648;-74
2022/06/19 10:26:15;;;;;;;6.93;4.20;;;34.70;20.70;;;;;;10541526;28;20234;-74
2022/06/19 10:31:29;;;;;;;9.97;4.43;;;35.00;20.80;;;;;;10536800;28;20223;-74
2022/06/19 10:36:39;;;;;;;7.97;4.43;;;35.10;20.50;;;;;;10537844;28;20239;-74
2022/06/19 10:42:02;;;;;;;7.70;5.30;;;35.30;21.10;;;;;;10543825;27;20223;-74
2022/06/19 10:47:13;;;;;;;7.27;5.00;;;35.40;19.80;;;;;;10541683;28;20234;-74
2022/06/19 10:52:23;;;;;;;6.57;4.63;;;35.60;19.50;;;;;;10540180;27;20222;-74
2022/06/19 10:57:41;;;;;;;6.93;5.33;;;35.70;18.90;;;;;;10541962;28;20235;-74
2022/06/19 11:08:13;;;;;;;8.60;5.47;;;35.90;18.40;;;;;;10500381;28;20301;-74
2022/06/19 11:13:17;;;;;;;8.47;5.80;;;35.90;18.70;;;;;;10540952;28;20226;-74
2022/06/19 11:18:25;;;;;;;9.70;6.53;;;36.00;18.50;;;;;;10539495;28;20227;-74
2022/06/19 11:23:32;;;;;;;7.10;5.70;;;36.00;18.40;;;;;;10539159;27;20251;-74
2022/06/19 11:28:49;;;;;;;10.23;6.43;;;36.10;17.30;;;;;;10531012;27;20223;-74
2022/06/19 11:33:55;;;;;;;10.90;6.20;;;36.20;16.80;;;;;;10534895;28;20556;-75
2022/06/19 11:39:00;;;;;;;9.27;6.10;;;36.20;18.20;;;;;;10534960;27;20223;-74
2022/06/19 11:44:15;;;;;;;7.87;5.83;;;36.30;18.40;;;;;;10526170;28;20222;-75
2022/06/19 11:49:31;;;;;;;10.70;6.03;;;36.40;17.10;;;;;;10535521;28;20703;-75
2022/06/19 11:54:45;;;;;;;8.53;5.80;;;36.40;16.90;;;;;;10505794;28;20238;-74
2022/06/19 11:59:56;;;;;;;7.43;6.23;;;36.40;16.60;;;;;;10530255;28;20230;-75
2022/06/19 12:05:02;;;;;;;10.90;6.40;;;36.40;17.00;;;;;;10536674;28;20227;-74
2022/06/19 12:10:18;;;;;;;7.00;6.13;;;36.50;16.80;;;;;;10527400;27;20261;-74
2022/06/19 12:15:26;;;;;;;9.53;6.63;;;36.60;16.70;;;;;;10537808;28;20230;-75
2022/06/19 12:20:31;;;;;;;8.57;6.50;;;36.60;16.20;;;;;;10536125;28;20223;-75
2022/06/19 12:25:45;;;;;;;10.00;6.90;;;36.60;17.10;;;;;;10541897;27;20223;-74
2022/06/19 12:30:55;;;;;;;7.43;6.63;;;36.60;16.00;;;;;;10540720;28;20231;-74
2022/06/19 12:36:03;;;;;;;7.43;6.57;;;36.70;16.10;;;;;;10492938;28;20310;-74
2022/06/19 12:41:26;;;;;;;11.00;6.17;;;36.60;16.40;;;;;;10492662;28;20228;-75
2022/06/19 12:46:41;;;;;;;8.57;6.40;;;36.80;16.30;;;;;;10512189;28;20232;-75
2022/06/19 12:51:52;;;;;;;7.40;6.70;;;36.80;16.30;;;;;;10493473;28;20913;-76
2022/06/19 12:57:13;;;;;;;8.93;6.63;;;36.80;15.90;;;;;;10504536;28;20229;-77
2022/06/19 13:02:27;;;;;;;8.00;6.33;;;36.90;16.10;;;;;;10504776;28;20212;-76
2022/06/19 13:07:42;;;;;;;6.60;6.00;;;37.00;14.90;;;;;;10503980;28;20243;-76
2022/06/19 13:13:05;;;;;;;9.23;6.87;;;37.10;15.70;;;;;;10505925;28;20233;-76
2022/06/19 13:18:19;;;;;;;8.60;6.80;;;37.20;14.80;;;;;;10499351;28;20223;-76
2022/06/19 13:23:33;;;;;;;9.17;6.77;;;37.20;15.00;;;;;;10497037;28;20228;-77
2022/06/19 13:28:50;;;;;;;9.17;6.77;;;37.30;14.60;;;;;;10494215;28;20232;-76
2022/06/19 13:34:11;;;;;;;7.27;6.50;;;37.20;14.80;;;;;;10498477;28;20597;-77
2022/06/19 13:39:24;;;;;;;9.77;7.13;;;37.20;15.10;;;;;;10541164;27;20281;-77
2022/06/19 13:44:43;;;;;;;9.93;7.07;;;37.30;14.70;;;;;;10556116;28;20277;-77
2022/06/19 13:49:53;;;;;;;9.23;6.73;;;37.40;14.40;;;;;;10550069;27;20317;-77
2022/06/19 13:55:03;;;;;;;10.80;6.97;;;37.50;14.40;;;;;;10530294;28;20277;-77
2022/06/19 14:00:28;;;;;;;8.37;6.67;;;37.50;14.40;;;;;;10550580;28;20233;-77
2022/06/19 14:05:37;;;;;;;10.47;7.00;;;37.50;15.40;;;;;;10552803;28;20219;-77
2022/06/19 14:10:45;;;;;;;8.80;6.60;;;37.60;15.00;;;;;;10543096;28;20230;-77
2022/06/19 14:15:57;;;;;;;7.30;6.27;;;37.60;14.40;;;;;;10547466;28;20654;-77
2022/06/19 14:21:18;;;;;;;8.57;7.30;;;37.60;14.50;;;;;;10549999;28;20238;-77
2022/06/19 14:26:38;;;;;;;11.70;7.07;;;37.70;14.50;;;;;;10549959;28;20233;-77
2022/06/19 14:31:43;;;;;;;9.63;6.97;;;37.80;14.50;;;;;;10555552;28;20227;-77
2022/06/19 14:36:48;;;;;;;8.37;7.10;;;37.90;14.60;;;;;;10543278;27;20229;-76
2022/06/19 14:41:59;;;;;;;8.20;6.80;;;38.00;14.60;;;;;;10542650;28;20226;-76
2022/06/19 14:47:24;;;;;;;9.70;7.17;;;38.00;14.70;;;;;;10489173;28;20234;-76
2022/06/19 14:53:06;;;;;;;8.77;6.97;;;38.10;14.70;;;;;;10489412;28;20234;-76
2022/06/19 14:58:17;;;;;;;7.87;7.03;;;38.20;14.80;;;;;;10474135;28;20230;-76
2022/06/19 15:03:34;;;;;;;7.87;6.97;;;38.30;14.30;;;;;;10531773;28;20711;-76
2022/06/19 15:08:42;;;;;;;9.20;7.43;;;38.40;14.60;;;;;;10531091;28;20235;-76
2022/06/19 15:13:47;;;;;;;8.60;7.10;;;38.50;14.40;;;;;;10531746;27;20273;-76
2022/06/19 15:18:52;;;;;;;7.83;7.10;;;38.50;14.90;;;;;;10535746;28;20249;-76
2022/06/19 15:23:58;;;;;;;9.37;6.77;;;38.60;14.50;;;;;;10539316;27;20229;-76
2022/06/19 15:29:25;;;;;;;7.93;7.20;;;38.70;14.20;;;;;;10535991;28;20256;-77
2022/06/19 15:34:34;;;;;;;10.93;7.30;;;38.70;13.60;;;;;;10546516;28;20679;-77
2022/06/19 15:39:46;;;;;;;7.53;6.80;;;38.80;14.00;;;;;;10539512;28;20334;-76
2022/06/19 15:45:13;;;;;;;9.77;7.80;;;38.70;13.70;;;;;;10529885;28;20869;-77
2022/06/19 15:50:41;;;;;;;10.33;7.50;;;38.70;14.00;;;;;;10542468;28;20230;-77
2022/06/19 15:55:48;;;;;;;7.85;7.15;;;38.70;14.10;;;;;;10500955;28;20221;-76
2022/06/19 16:00:57;;;;;;;10.18;7.10;;;38.70;13.80;;;;;;10512116;28;20227;-78
2022/06/19 16:06:02;;;;;;;8.50;7.17;;;38.70;13.80;;;;;;10524863;28;20355;-77
2022/06/19 16:11:07;;;;;;;9.23;7.45;;;38.70;14.30;;;;;;10535323;28;20221;-77
2022/06/19 16:16:19;;;;;;;8.57;7.30;;;38.80;14.00;;;;;;10556630;27;20237;-78
2022/06/19 16:21:23;;;;;;;9.13;7.45;;;38.80;14.20;;;;;;10554635;28;21441;-77
2022/06/19 16:26:30;;;;;;;9.87;7.10;;;38.70;13.90;;;;;;10550304;28;20230;-77
2022/06/19 16:31:36;;;;;;;8.48;7.63;;;38.70;13.80;;;;;;10509943;28;20227;-77
2022/06/19 16:47:25;;;;;;;7.93;7.17;;;38.40;14.00;;;;;;10547237;28;20341;-77
2022/06/19 16:52:29;;;;;;;9.60;8.23;;;38.40;14.00;;;;;;10544952;28;20710;-77
2022/06/19 16:57:46;;;;;;;12.80;11.10;;;38.40;14.70;;;;;;10544785;28;20734;-77
2022/06/19 17:02:55;;;;;;;10.97;8.30;;;38.40;14.20;;;;;;10520041;27;20266;-76
2022/06/19 17:13:25;;;;;;;8.27;7.27;;;38.40;14.10;;;;;;10502515;28;20688;-77
2022/06/19 17:18:39;;;;;;;8.27;7.47;;;38.30;14.60;;;;;;10506693;28;20228;-76
2022/06/19 17:23:42;;;;;;;7.83;7.03;;;38.30;14.80;;;;;;10505514;28;20229;-76
2022/06/19 17:28:51;;;;;;;7.57;6.87;;;38.10;14.70;;;;;;10501367;28;20247;-76
2022/06/19 17:33:56;;;;;;;8.53;6.43;;;38.10;14.70;;;;;;10501406;28;20251;-76
2022/06/19 17:39:01;;;;;;;7.53;6.72;;;38.10;14.70;;;;;;10501345;28;20240;-76
2022/06/19 17:44:08;;;;;;;7.37;6.67;;;38.20;14.80;;;;;;10501117;28;20217;-76
2022/06/19 17:49:32;;;;;;;9.00;6.23;;;38.20;16.00;;;;;;10498260;28;20882;-76
2022/06/19 17:54:37;;;;;;;8.50;6.87;;;38.20;15.90;;;;;;10500928;28;20231;-76
2022/06/19 18:00:10;;;;;;;11.73;7.10;;;38.20;16.80;;;;;;10501745;28;20270;-76
2022/06/19 18:05:32;;;;;;;8.10;7.30;;;38.00;17.00;;;;;;10502316;28;20715;-76
2022/06/19 18:10:44;;;;;;;8.00;7.10;;;37.90;17.10;;;;;;10500665;28;20227;-76
2022/06/19 18:21:22;;;;;;;8.20;6.70;;;37.70;17.60;;;;;;10499665;28;20700;-76
2022/06/19 18:26:31;;;;;;;7.67;6.87;;;37.60;18.30;;;;;;10505139;28;20601;-77
2022/06/19 18:31:36;;;;;;;9.03;6.80;;;37.40;17.90;;;;;;10516567;28;20227;-78
2022/06/19 18:36:40;;;;;;;10.10;7.03;;;37.30;17.70;;;;;;10511242;28;20239;-78
2022/06/19 18:41:43;;;;;;;8.53;6.60;;;37.10;17.90;;;;;;10519490;28;20217;-78
2022/06/19 18:46:48;;;;;;;7.70;6.70;;;36.90;17.50;;;;;;10517651;28;20231;-78
2022/06/19 18:52:12;;;;;;;8.70;6.43;;;36.70;18.10;;;;;;10510932;28;20583;-78
2022/06/19 18:57:16;;;;;;;7.67;6.60;;;36.50;18.20;;;;;;10513974;28;20648;-77
2022/06/19 19:02:21;;;;;;;9.03;6.70;;;36.30;18.00;;;;;;10511001;28;20232;-77
2022/06/19 19:07:25;;;;;;;7.07;6.30;;;36.10;18.40;;;;;;10509440;28;21812;-78
2022/06/19 19:12:34;;;;;;;7.10;6.23;;;35.90;18.40;;;;;;10511133;28;20216;-79
2022/06/19 19:17:39;;;;;;;7.00;6.37;;;35.80;18.90;;;;;;10507645;28;20733;-77
2022/06/19 19:22:43;;;;;;;9.33;6.13;;;35.70;18.80;;;;;;10507198;28;20232;-76
2022/06/19 19:27:47;;;;;;;7.83;6.60;;;35.50;18.70;;;;;;10498296;28;20225;-76
2022/06/19 19:32:52;;;;;;;7.07;6.23;;;35.30;18.90;;;;;;10506961;28;20222;-76
2022/06/19 19:37:59;;;;;;;7.47;6.40;;;35.20;19.20;;;;;;10502500;28;20231;-76
2022/06/19 19:43:04;;;;;;;8.33;6.60;;;35.00;19.40;;;;;;10495486;28;20631;-75
2022/06/19 19:48:12;;;;;;;9.90;6.07;;;34.80;19.30;;;;;;10492206;28;20225;-75
2022/06/19 19:53:18;;;;;;;8.27;6.33;;;34.70;19.90;;;;;;10531954;28;20222;-75
2022/06/19 19:58:22;;;;;;;7.53;6.73;;;34.50;20.10;;;;;;10541003;28;20599;-76
2022/06/19 20:03:27;;;;;;;7.73;6.93;;;34.40;20.00;;;;;;10536465;28;20670;-76
2022/06/19 20:13:51;;;;;;;10.40;6.67;;;34.00;20.40;;;;;;10536618;27;20317;-76
2022/06/19 20:18:56;;;;;;;12.43;6.90;;;33.80;20.70;;;;;;10531127;28;20238;-76
2022/06/19 20:24:02;;;;;;;8.00;7.20;;;33.70;21.10;;;;;;10530793;28;20215;-76
2022/06/19 20:29:10;;;;;;;8.47;7.57;;;33.50;21.30;;;;;;10529804;28;20219;-76
2022/06/19 20:34:17;;;;;;;7.43;6.70;;;33.30;21.70;;;;;;10532962;28;20223;-76
2022/06/19 20:39:23;;;;;;;8.37;6.93;;;32.90;22.10;;;;;;10533488;28;20227;-76
2022/06/19 20:44:27;;;;;;;8.30;6.80;;;32.60;22.50;;;;;;10535352;28;20238;-76
2022/06/19 20:49:34;;;;;;;8.87;7.40;;;32.20;22.20;;;;;;10547558;27;20280;-76
2022/06/19 20:54:38;;;;;;;8.27;7.47;;;32.10;23.30;;;;;;10551010;28;20558;-76
2022/06/19 20:59:41;;;;;;;8.33;7.47;;;31.90;22.90;;;;;;10553589;28;20218;-76
2022/06/19 21:04:49;;;;;;;8.90;7.90;;;31.80;23.20;;;;;;10550298;28;20223;-76
2022/06/19 21:09:52;;;;;;;11.07;8.90;;;31.60;24.30;;;;;;10547478;27;20232;-76
2022/06/19 21:14:56;;;;;;;9.30;7.23;;;31.50;23.90;;;;;;10548308;28;20310;-76
2022/06/19 21:20:01;;;;;;;9.30;7.80;;;31.20;23.80;;;;;;10550558;28;20227;-76
2022/06/19 21:25:05;;;;;;;10.50;8.23;;;31.00;24.80;;;;;;10547164;27;20223;-76
2022/06/19 21:30:11;;;;;;;9.00;8.07;;;30.80;24.90;;;;;;10544945;27;20227;-76
2022/06/19 21:35:18;;;;;;;9.23;8.13;;;30.60;25.50;;;;;;10550871;28;20224;-76
2022/06/19 21:40:24;;;;;;;9.63;8.60;;;30.50;25.80;;;;;;10548291;28;20237;-76
2022/06/19 21:45:28;;;;;;;9.00;7.40;;;30.40;26.10;;;;;;10548966;27;20250;-76
2022/06/19 21:50:34;;;;;;;10.07;8.70;;;30.30;25.40;;;;;;10542038;27;20251;-76
2022/06/19 21:55:39;;;;;;;9.67;8.80;;;30.30;26.40;;;;;;10534112;28;20223;-76
2022/06/19 22:00:44;;;;;;;10.80;9.70;;;30.20;25.90;;;;;;10547303;28;20229;-76
2022/06/19 22:05:50;;;;;;;10.43;9.30;;;30.20;26.60;;;;;;10549508;27;20227;-75
2022/06/19 22:16:19;;;;;;;10.63;9.53;;;29.90;26.70;;;;;;10510304;28;20228;-75
2022/06/19 22:21:24;;;;;;;9.57;8.67;;;29.70;27.20;;;;;;10550902;27;20231;-75
2022/06/19 22:26:30;;;;;;;10.87;8.57;;;29.60;27.30;;;;;;10549200;28;20226;-75
2022/06/19 22:31:33;;;;;;;9.77;8.80;;;29.50;27.00;;;;;;10547154;27;20237;-75
2022/06/19 22:36:40;;;;;;;11.67;9.13;;;29.50;27.10;;;;;;10545425;27;20233;-75
2022/06/19 22:41:43;;;;;;;9.63;8.63;;;29.40;28.00;;;;;;10548474;28;20226;-75
2022/06/19 22:46:47;;;;;;;9.23;8.30;;;29.40;27.40;;;;;;10547787;27;20223;-76
2022/06/19 22:51:52;;;;;;;11.83;9.13;;;29.40;27.60;;;;;;10543311;28;20285;-75
2022/06/19 22:56:56;;;;;;;8.87;7.97;;;29.30;28.10;;;;;;10544500;27;20237;-75
2022/06/19 23:01:59;;;;;;;9.83;8.37;;;29.30;27.40;;;;;;10547961;28;20215;-75
2022/06/19 23:07:05;;;;;;;9.33;8.43;;;29.30;27.60;;;;;;10539702;28;20934;-75
2022/06/19 23:12:09;;;;;;;10.30;9.23;;;29.20;28.40;;;;;;10543334;28;20231;-75
2022/06/19 23:17:25;;;;;;;15.10;9.60;;;29.10;28.00;;;;;;10546283;28;20242;-75
2022/06/19 23:22:37;;;;;;;11.17;9.83;;;29.10;29.00;;;;;;10542174;28;20226;-76
2022/06/19 23:27:41;;;;;;;10.10;8.13;;;29.00;29.10;;;;;;10548523;28;20231;-75
2022/06/19 23:32:44;;;;;;;10.30;9.40;;;28.90;28.20;;;;;;10545148;28;20235;-75
2022/06/19 23:37:52;;;;;;;9.00;8.20;;;28.90;28.50;;;;;;10543946;28;20924;-75
2022/06/19 23:42:57;;;;;;;9.03;8.20;;;28.90;29.10;;;;;;10545806;27;20230;-75
2022/06/19 23:48:00;;;;;;;10.23;9.00;;;28.90;28.50;;;;;;10504008;28;20227;-75
2022/06/19 23:53:05;;;;;;;10.50;9.40;;;28.80;28.60;;;;;;10506711;28;20303;-75
2022/06/19 23:58:12;;;;;;;11.30;10.10;;;28.70;29.10;;;;;;10517534;28;20223;-75
